FLTA4: Red River, Fulton, AR

Data processed at Sat Mar 10 2018 23:23


All information presented herein is the property of the government of the United States of America and may be revised or deleted at any time without prior notice.
Dissemination of this information without the expressed written consent of the Public Affairs Office, Tulsa District U.S. Army Corps of Engineers is strictly prohibited.
These data are gathered electronically and, as presented, have not undergone any form of quality control. These data are not guaranteed to be valid or correct.
Go to home page.
Go to station list.

Upstream stations:


Previous Day
Next Day
Current Day
    
SHEF ID:       FLTA4     Red River nr Fulton
STATION TYPE:  

               PRECIP     STAGE  RIV-FLOW   VOLTAGE
                   in        ft       cfs      volt
              Ccp-Rev   Ccp-Rev   Ccp-Rev   Ccp-Rev
(US/Central)
03/08 00:00      0.00     18.12     84588     12.50
03/08 01:00      0.00     18.15     84776     12.50
03/08 02:00      0.00     18.12     84588     12.40
03/08 03:00      0.00     18.14     84713     12.40
03/08 04:00      0.00     18.11     84526     12.40
03/08 05:00      0.00     18.14     84713     12.40
03/08 06:00      0.00     18.09     84401     12.40
03/08 07:00      0.00     18.14     84713     12.40
03/08 08:00      0.00     18.11     84526     13.00
03/08 09:00      0.00     18.09     84401     13.80
03/08 10:00      0.00     18.12     84588     13.30
03/08 11:00      0.00     18.08     84339     13.20
03/08 12:00      0.00     18.09     84401     13.20
03/08 13:00      0.00     18.10     84464     13.20
03/08 14:00      0.00     18.07     84276     13.10
03/08 15:00      0.00     18.09     84401     13.20
03/08 16:00      0.00     18.08     84339     13.30
03/08 17:00      0.00     18.05     84152     13.20
03/08 18:00      0.00     18.04     84089     12.90
03/08 19:00      0.00     18.04     84089     12.70
03/08 20:00      0.00     18.01     83902     12.70
03/08 21:00      0.00     18.01     83902     12.60
03/08 22:00      0.00     18.02     83965     12.60
03/08 23:00      0.00     17.98     83713     12.50